sensor_id;sensor_type;location;lat;lon;timestamp;pressure;altitude;pressure_sealevel;temperature;humidity
40908;BME280;51055;59.436;24.778;2024-01-07T17:08:31;103448.09;;;-12.77;100.00
40908;BME280;51055;59.436;24.778;2024-01-07T17:10:59;103444.13;;;-12.86;100.00
40908;BME280;51055;59.436;24.778;2024-01-07T17:13:27;103451.25;;;-12.81;100.00
40908;BME280;51055;59.436;24.778;2024-01-07T17:15:55;103446.22;;;-12.79;100.00
40908;BME280;51055;59.436;24.778;2024-01-07T17:18:22;103444.03;;;-12.73;100.00
40908;BME280;51055;59.436;24.778;2024-01-07T17:20:50;103447.84;;;-12.66;100.00
40908;BME280;51055;59.436;24.778;2024-01-07T17:23:17;103446.41;;;-12.61;100.00
40908;BME280;51055;59.436;24.778;2024-01-07T17:25:49;103445.34;;;-12.65;100.00
40908;BME280;51055;59.436;24.778;2024-01-07T17:28:17;103442.78;;;-12.65;100.00
40908;BME280;51055;59.436;24.778;2024-01-07T17:30:45;103448.91;;;-12.63;100.00
40908;BME280;51055;59.436;24.778;2024-01-07T17:33:13;103445.69;;;-12.59;100.00
40908;BME280;51055;59.436;24.778;2024-01-07T17:35:41;103448.00;;;-12.63;100.00
40908;BME280;51055;59.436;24.778;2024-01-07T17:38:08;103449.69;;;-12.64;100.00
40908;BME280;51055;59.436;24.778;2024-01-07T17:40:36;103456.56;;;-12.63;100.00
40908;BME280;51055;59.436;24.778;2024-01-07T17:43:04;103451.53;;;-12.61;100.00
40908;BME280;51055;59.436;24.778;2024-01-07T17:45:33;103449.84;;;-12.61;100.00
40908;BME280;51055;59.436;24.778;2024-01-07T17:48:00;103446.34;;;-12.63;100.00
40908;BME280;51055;59.436;24.778;2024-01-07T17:50:29;103443.06;;;-12.60;100.00
40908;BME280;51055;59.436;24.778;2024-01-07T17:52:57;103442.19;;;-12.61;100.00
40908;BME280;51055;59.436;24.778;2024-01-07T17:55:26;103443.16;;;-12.59;100.00
40908;BME280;51055;59.436;24.778;2024-01-07T17:57:53;103444.13;;;-12.57;100.00
40908;BME280;51055;59.436;24.778;2024-01-07T18:00:21;103446.69;;;-12.57;100.00
40908;BME280;51055;59.436;24.778;2024-01-07T18:02:50;103437.59;;;-12.52;100.00
40908;BME280;51055;59.436;24.778;2024-01-07T18:05:17;103439.09;;;-12.55;100.00
40908;BME280;51055;59.436;24.778;2024-01-07T18:07:46;103444.31;;;-12.54;100.00
40908;BME280;51055;59.436;24.778;2024-01-07T18:10:13;103450.97;;;-12.56;100.00
40908;BME280;51055;59.436;24.778;2024-01-07T18:12:41;103454.53;;;-12.54;100.00
40908;BME280;51055;59.436;24.778;2024-01-07T18:15:09;103453.66;;;-12.54;100.00
40908;BME280;51055;59.436;24.778;2024-01-07T18:17:37;103450.31;;;-12.53;100.00
40908;BME280;51055;59.436;24.778;2024-01-07T18:20:10;103446.16;;;-12.51;100.00
40908;BME280;51055;59.436;24.778;2024-01-07T18:22:39;103452.03;;;-12.52;100.00
40908;BME280;51055;59.436;24.778;2024-01-07T18:25:07;103444.91;;;-12.58;100.00
40908;BME280;51055;59.436;24.778;2024-01-07T18:27:35;103444.91;;;-12.58;100.00
40908;BME280;51055;59.436;24.778;2024-01-07T18:30:04;103450.97;;;-12.56;100.00
40908;BME280;51055;59.436;24.778;2024-01-07T18:32:32;103438.13;;;-12.57;100.00
40908;BME280;51055;59.436;24.778;2024-01-07T18:35:02;103442.38;;;-12.58;100.00
40908;BME280;51055;59.436;24.778;2024-01-07T18:37:30;103447.28;;;-12.61;100.00
40908;BME280;51055;59.436;24.778;2024-01-07T18:39:58;103448.91;;;-12.63;100.00
40908;BME280;51055;59.436;24.778;2024-01-07T18:42:27;103452.31;;;-12.62;100.00
40908;BME280;51055;59.436;24.778;2024-01-07T18:44:55;103458.41;;;-12.60;100.00
40908;BME280;51055;59.436;24.778;2024-01-07T18:47:23;103447.91;;;-12.65;100.00
40908;BME280;51055;59.436;24.778;2024-01-07T18:49:53;103452.13;;;-12.65;100.00
40908;BME280;51055;59.436;24.778;2024-01-07T18:52:21;103451.19;;;-12.67;100.00
40908;BME280;51055;59.436;24.778;2024-01-07T18:54:49;103445.88;;;-12.71;100.00
40908;BME280;51055;59.436;24.778;2024-01-07T18:57:17;103456.09;;;-12.71;100.00
40908;BME280;51055;59.436;24.778;2024-01-07T18:59:45;103452.50;;;-12.74;100.00
40908;BME280;51055;59.436;24.778;2024-01-07T19:02:12;103452.50;;;-12.74;100.00
40908;BME280;51055;59.436;24.778;2024-01-07T19:04:40;103448.09;;;-12.77;100.00
40908;BME280;51055;59.436;24.778;2024-01-07T19:07:09;103454.63;;;-12.67;100.00
40908;BME280;51055;59.436;24.778;2024-01-07T19:09:37;103452.22;;;-12.64;100.00
40908;BME280;51055;59.436;24.778;2024-01-07T19:12:06;103454.34;;;-12.57;100.00
40908;BME280;51055;59.436;24.778;2024-01-07T19:14:34;103459.13;;;-12.63;100.00
40908;BME280;51055;59.436;24.778;2024-01-07T19:17:06;103459.13;;;-12.63;100.00
40908;BME280;51055;59.436;24.778;2024-01-07T19:19:34;103458.91;;;-12.66;100.00
40908;BME280;51055;59.436;24.778;2024-01-07T19:22:03;103457.53;;;-12.61;100.00
40908;BME280;51055;59.436;24.778;2024-01-07T19:24:31;103464.84;;;-12.67;100.00
40908;BME280;51055;59.436;24.778;2024-01-07T19:26:59;103465.63;;;-12.68;100.00
40908;BME280;51055;59.436;24.778;2024-01-07T19:29:27;103462.19;;;-12.68;100.00
40908;BME280;51055;59.436;24.778;2024-01-07T19:31:55;103462.59;;;-12.76;100.00
40908;BME280;51055;59.436;24.778;2024-01-07T19:34:23;103454.50;;;-12.83;100.00
40908;BME280;51055;59.436;24.778;2024-01-07T19:36:51;103447.63;;;-12.84;100.00
40908;BME280;51055;59.436;24.778;2024-01-07T19:39:19;103448.41;;;-12.85;100.00
40908;BME280;51055;59.436;24.778;2024-01-07T19:41:47;103453.16;;;-12.91;100.00
40908;BME280;51055;59.436;24.778;2024-01-07T19:44:15;103451.31;;;-12.94;100.00
40908;BME280;51055;59.436;24.778;2024-01-07T19:46:45;103444.97;;;-12.86;100.00
40908;BME280;51055;59.436;24.778;2024-01-07T19:49:13;103453.63;;;-12.84;100.00
40908;BME280;51055;59.436;24.778;2024-01-07T19:51:41;103455.28;;;-12.84;100.00
40908;BME280;51055;59.436;24.778;2024-01-07T19:54:09;103457.06;;;-12.83;100.00
40908;BME280;51055;59.436;24.778;2024-01-07T19:56:37;103462.19;;;-12.83;100.00
40908;BME280;51055;59.436;24.778;2024-01-07T19:59:04;103454.34;;;-12.86;100.00
40908;BME280;51055;59.436;24.778;2024-01-07T20:01:32;103450.00;;;-12.87;100.00
40908;BME280;51055;59.436;24.778;2024-01-07T20:03:59;103456.34;;;-12.81;100.00
40908;BME280;51055;59.436;24.778;2024-01-07T20:06:27;103445.53;;;-12.77;100.00
40908;BME280;51055;59.436;24.778;2024-01-07T20:08:57;103448.34;;;-12.72;100.00
40908;BME280;51055;59.436;24.778;2024-01-07T20:11:25;103455.13;;;-12.73;100.00
40908;BME280;51055;59.436;24.778;2024-01-07T20:13:53;103457.59;;;-12.74;100.00
40908;BME280;51055;59.436;24.778;2024-01-07T20:16:21;103455.94;;;-12.74;100.00
40908;BME280;51055;59.436;24.778;2024-01-07T20:18:49;103456.66;;;-12.76;100.00
40908;BME280;51055;59.436;24.778;2024-01-07T20:21:21;103458.56;;;-12.72;100.00
40908;BME280;51055;59.436;24.778;2024-01-07T20:23:50;103450.66;;;-12.77;100.00
40908;BME280;51055;59.436;24.778;2024-01-07T20:26:18;103455.94;;;-12.74;100.00
40908;BME280;51055;59.436;24.778;2024-01-07T20:28:46;103446.59;;;-12.73;100.00
40908;BME280;51055;59.436;24.778;2024-01-07T20:31:17;103449.66;;;-12.79;100.00
40908;BME280;51055;59.436;24.778;2024-01-07T20:33:45;103447.28;;;-12.76;100.00
40908;BME280;51055;59.436;24.778;2024-01-07T20:36:13;103453.28;;;-12.75;100.00
40908;BME280;51055;59.436;24.778;2024-01-07T20:38:42;103451.88;;;-12.70;100.00
40908;BME280;51055;59.436;24.778;2024-01-07T20:41:10;103450.22;;;-12.69;100.00
40908;BME280;51055;59.436;24.778;2024-01-07T20:43:39;103457.25;;;-12.51;100.00
40908;BME280;51055;59.436;24.778;2024-01-07T20:46:07;103444.38;;;-12.38;100.00
40908;BME280;51055;59.436;24.778;2024-01-07T20:48:35;103445.44;;;-12.49;100.00
40908;BME280;51055;59.436;24.778;2024-01-07T20:51:07;103455.16;;;-12.43;100.00
40908;BME280;51055;59.436;24.778;2024-01-07T20:53:35;103445.94;;;-12.40;100.00
40908;BME280;51055;59.436;24.778;2024-01-07T20:56:04;103439.34;;;-12.36;100.00
40908;BME280;51055;59.436;24.778;2024-01-07T20:58:32;103440.50;;;-12.31;100.00
40908;BME280;51055;59.436;24.778;2024-01-07T21:01:00;103434.59;;;-12.30;100.00
40908;BME280;51055;59.436;24.778;2024-01-07T21:03:28;103433.94;;;-12.26;100.00
40908;BME280;51055;59.436;24.778;2024-01-07T21:05:56;103435.00;;;-12.23;100.00
40908;BME280;51055;59.436;24.778;2024-01-07T21:08:27;103435.28;;;-12.18;100.00
40908;BME280;51055;59.436;24.778;2024-01-07T21:10:56;103444.78;;;-12.15;100.00
40908;BME280;51055;59.436;24.778;2024-01-07T21:13:25;103441.44;;;-12.14;100.00
40908;BME280;51055;59.436;24.778;2024-01-07T21:15:53;103448.31;;;-12.13;100.00
40908;BME280;51055;59.436;24.778;2024-01-07T21:18:21;103455.28;;;-12.11;100.00
40908;BME280;51055;59.436;24.778;2024-01-07T21:20:49;103465.59;;;-12.09;100.00
40908;BME280;51055;59.436;24.778;2024-01-07T21:23:17;103458.91;;;-12.07;100.00
40908;BME280;51055;59.436;24.778;2024-01-07T21:25:45;103455.63;;;-12.05;100.00
40908;BME280;51055;59.436;24.778;2024-01-07T21:28:14;103454.13;;;-12.01;100.00
40908;BME280;51055;59.436;24.778;2024-01-07T21:30:41;103462.50;;;-12.04;100.00
40908;BME280;51055;59.436;24.778;2024-01-07T21:33:09;103455.53;;;-12.06;100.00
40908;BME280;51055;59.436;24.778;2024-01-07T21:35:37;103458.97;;;-12.06;100.00
40908;BME280;51055;59.436;24.778;2024-01-07T21:38:05;103458.25;;;-12.03;100.00
40908;BME280;51055;59.436;24.778;2024-01-07T21:40:34;103454.66;;;-12.07;100.00
40908;BME280;51055;59.436;24.778;2024-01-07T21:43:02;103458.91;;;-12.07;100.00
40908;BME280;51055;59.436;24.778;2024-01-07T21:45:30;103453.63;;;-12.10;100.00
40908;BME280;51055;59.436;24.778;2024-01-07T21:47:58;103462.25;;;-12.08;100.00
40908;BME280;51055;59.436;24.778;2024-01-07T21:50:25;103456.41;;;-12.06;100.00
40908;BME280;51055;59.436;24.778;2024-01-07T21:52:56;103460.81;;;-12.03;100.00
40908;BME280;51055;59.436;24.778;2024-01-07T21:55:24;103448.84;;;-12.04;100.00
40908;BME280;51055;59.436;24.778;2024-01-07T21:57:52;103449.78;;;-12.02;100.00
40908;BME280;51055;59.436;24.778;2024-01-07T22:00:22;103450.69;;;-12.02;100.00
40908;BME280;51055;59.436;24.778;2024-01-07T22:02:49;103455.00;;;-12.01;100.00
40908;BME280;51055;59.436;24.778;2024-01-07T22:05:17;103452.53;;;-11.99;100.00
40908;BME280;51055;59.436;24.778;2024-01-07T22:07:46;103452.47;;;-12.01;100.00
40908;BME280;51055;59.436;24.778;2024-01-07T22:10:13;103447.06;;;-12.05;100.00
40908;BME280;51055;59.436;24.778;2024-01-07T22:12:41;103436.50;;;-12.11;100.00
40908;BME280;51055;59.436;24.778;2024-01-07T22:15:09;103437.13;;;-12.15;100.00
40908;BME280;51055;59.436;24.778;2024-01-07T22:17:37;103428.56;;;-12.16;100.00
40908;BME280;51055;59.436;24.778;2024-01-07T22:20:06;103436.00;;;-12.21;100.00
40908;BME280;51055;59.436;24.778;2024-01-07T22:22:35;103440.41;;;-12.18;100.00
40908;BME280;51055;59.436;24.778;2024-01-07T22:25:03;103431.94;;;-12.17;100.00
40908;BME280;51055;59.436;24.778;2024-01-07T22:27:31;103435.34;;;-12.17;100.00
40908;BME280;51055;59.436;24.778;2024-01-07T22:30:02;103424.25;;;-12.17;100.00
40908;BME280;51055;59.436;24.778;2024-01-07T22:32:30;103430.16;;;-12.18;100.00
40908;BME280;51055;59.436;24.778;2024-01-07T22:34:58;103427.59;;;-12.18;100.00
40908;BME280;51055;59.436;24.778;2024-01-07T22:37:28;103427.94;;;-12.12;100.00
40908;BME280;51055;59.436;24.778;2024-01-07T22:39:56;103427.06;;;-12.12;100.00
40908;BME280;51055;59.436;24.778;2024-01-07T22:42:23;103424.34;;;-12.15;100.00
40908;BME280;51055;59.436;24.778;2024-01-07T22:44:52;103430.22;;;-12.17;100.00
40908;BME280;51055;59.436;24.778;2024-01-07T22:47:20;103423.53;;;-12.14;100.00
40908;BME280;51055;59.436;24.778;2024-01-07T22:49:48;103421.00;;;-12.14;100.00
40908;BME280;51055;59.436;24.778;2024-01-07T22:52:16;103416.81;;;-12.12;100.00
40908;BME280;51055;59.436;24.778;2024-01-07T22:54:49;103424.50;;;-12.12;100.00
40908;BME280;51055;59.436;24.778;2024-01-07T22:57:16;103419.94;;;-12.18;100.00
40908;BME280;51055;59.436;24.778;2024-01-07T22:59:44;103412.97;;;-12.21;100.00
40908;BME280;51055;59.436;24.778;2024-01-07T23:02:12;103407.03;;;-12.20;100.00
40908;BME280;51055;59.436;24.778;2024-01-07T23:04:43;103402.97;;;-12.16;100.00
40908;BME280;51055;59.436;24.778;2024-01-07T23:07:10;103403.41;;;-12.08;100.00
40908;BME280;51055;59.436;24.778;2024-01-07T23:09:38;103392.63;;;-12.03;100.00
40908;BME280;51055;59.436;24.778;2024-01-07T23:12:06;103388.50;;;-12.01;100.00
40908;BME280;51055;59.436;24.778;2024-01-07T23:14:34;103382.88;;;-11.94;100.00
40908;BME280;51055;59.436;24.778;2024-01-07T23:17:02;103385.97;;;-11.85;100.00
40908;BME280;51055;59.436;24.778;2024-01-07T23:19:30;103383.78;;;-11.77;100.00
40908;BME280;51055;59.436;24.778;2024-01-07T23:21:58;103388.22;;;-11.75;100.00
40908;BME280;51055;59.436;24.778;2024-01-07T23:24:26;103381.41;;;-11.74;100.00
40908;BME280;51055;59.436;24.778;2024-01-07T23:26:53;103374.75;;;-11.71;100.00
40908;BME280;51055;59.436;24.778;2024-01-07T23:29:21;103366.50;;;-11.65;100.00
40908;BME280;51055;59.436;24.778;2024-01-07T23:31:48;103367.72;;;-11.58;100.00
40908;BME280;51055;59.436;24.778;2024-01-07T23:34:16;103365.38;;;-11.54;100.00
40908;BME280;51055;59.436;24.778;2024-01-07T23:36:44;103360.50;;;-11.49;100.00
40908;BME280;51055;59.436;24.778;2024-01-07T23:39:12;103365.84;;;-11.45;100.00
40908;BME280;51055;59.436;24.778;2024-01-07T23:41:40;103354.66;;;-11.47;100.00
40908;BME280;51055;59.436;24.778;2024-01-07T23:44:08;103355.13;;;-11.38;100.00
40908;BME280;51055;59.436;24.778;2024-01-07T23:46:36;103355.84;;;-11.40;100.00
40908;BME280;51055;59.436;24.778;2024-01-07T23:49:05;103361.63;;;-11.44;100.00
40908;BME280;51055;59.436;24.778;2024-01-07T23:51:33;103365.22;;;-11.41;100.00
40908;BME280;51055;59.436;24.778;2024-01-07T23:54:00;103364.13;;;-11.46;100.00
40908;BME280;51055;59.436;24.778;2024-01-07T23:56:34;103364.16;;;-11.44;100.00
40908;BME280;51055;59.436;24.778;2024-01-07T23:59:01;103353.88;;;-11.46;100.00
